Time,TemperatureF,DewpointF,PressureIn,WindDirection,WindDirectionDegrees,WindSpeedMPH,WindSpeedGustMPH,Humidity,HourlyPrecipIn,Conditions,Clouds,dailyrainin,SolarRadiationWatts/m^2,SoftwareType,DateUTC
2013-01-16 00:04:00,42.6,37.8,30.20,WNW,292,19.0,19.0,83,0.00,RA,SKC,0.00,0.0,WeatherDisplay:10.37,2013-01-16 06:04:00,
2013-01-16 00:09:00,42.7,37.6,30.20,WNW,302,17.3,17.3,82,0.00,RA,SKC,0.00,0.0,WeatherDisplay:10.37,2013-01-16 06:09:00,
2013-01-16 00:14:00,42.7,37.6,30.20,WNW,296,19.6,19.6,82,0.00,CLR,SKC,0.00,0.0,WeatherDisplay:10.37,2013-01-16 06:14:00,
2013-01-16 00:19:00,42.7,37.9,30.20,WNW,283,13.8,13.8,83,0.00,CLR,SKC,0.00,0.0,WeatherDisplay:10.37,2013-01-16 06:19:00,
2013-01-16 00:24:00,42.7,37.6,30.20,NW,317,21.9,21.9,82,0.00,CLR,SKC,0.00,0.0,WeatherDisplay:10.37,2013-01-16 06:24:00,
2013-01-16 00:29:00,42.7,37.3,30.20,NW,304,17.3,17.3,81,0.00,CLR,SKC,0.00,0.0,WeatherDisplay:10.37,2013-01-16 06:29:00,
2013-01-16 00:34:00,42.7,37.3,30.20,NW,311,15.0,15.0,81,0.00,CLR,SKC,0.00,0.0,WeatherDisplay:10.37,2013-01-16 06:34:00,
2013-01-16 00:39:00,42.9,37.5,30.20,WNW,294,17.3,17.3,81,0.00,CLR,SKC,0.00,0.0,WeatherDisplay:10.37,2013-01-16 06:39:00,
2013-01-16 00:44:00,42.9,37.5,30.21,WNW,285,18.0,18.0,81,0.00,CLR,SKC,0.00,0.0,WeatherDisplay:10.37,2013-01-16 06:44:00,
2013-01-16 00:49:00,43.0,37.9,30.21,WNW,300,17.3,17.3,82,0.00,CLR,SKC,0.00,0.0,WeatherDisplay:10.37,2013-01-16 06:49:00,
2013-01-16 00:54:00,43.0,37.9,30.21,WNW,292,15.0,15.0,82,0.00,CLR,SKC,0.00,0.0,WeatherDisplay:10.37,2013-01-16 06:54:00,
2013-01-16 00:59:00,43.0,37.6,30.21,NW,318,16.1,16.1,81,0.00,CLR,SKC,0.00,0.0,WeatherDisplay:10.37,2013-01-16 06:59:00,
2013-01-16 01:04:00,43.0,37.3,30.21,NW,317,19.6,19.6,80,0.00,CLR,SKC,0.00,0.0,WeatherDisplay:10.37,2013-01-16 07:04:00,
2013-01-16 01:09:00,43.0,36.9,30.21,WNW,300,17.3,17.3,79,0.00,CLR,SKC,0.00,0.0,WeatherDisplay:10.37,2013-01-16 07:09:00,
2013-01-16 01:14:00,43.0,36.6,30.21,NW,310,18.4,18.4,78,0.00,CLR,SKC,0.00,0.0,WeatherDisplay:10.37,2013-01-16 07:14:00,
2013-01-16 01:19:00,43.0,36.6,30.21,NNW,330,20.7,20.7,78,0.00,CLR,SKC,0.00,0.0,WeatherDisplay:10.37,2013-01-16 07:19:00,
2013-01-16 01:24:00,43.0,36.6,30.21,NW,325,18.4,18.4,78,0.00,CLR,SKC,0.00,0.0,WeatherDisplay:10.37,2013-01-16 07:24:00,
2013-01-16 01:29:00,43.1,36.4,30.22,NW,304,23.0,23.0,77,0.00,CLR,SKC,0.00,0.0,WeatherDisplay:10.37,2013-01-16 07:29:00,
2013-01-16 01:34:00,43.1,36.4,30.22,NW,319,19.6,19.6,77,0.00,CLR,SKC,0.00,0.0,WeatherDisplay:10.37,2013-01-16 07:34:00,
2013-01-16 01:39:00,43.2,36.8,30.22,NW,317,15.0,15.0,78,0.00,CLR,SKC,0.00,0.0,WeatherDisplay:10.37,2013-01-16 07:39:00,
2013-01-16 01:44:00,43.2,36.8,30.22,WNW,302,15.0,15.0,78,0.00,CLR,SKC,0.00,0.0,WeatherDisplay:10.37,2013-01-16 07:44:00,
2013-01-16 01:49:00,43.1,36.4,30.22,NW,319,16.1,16.1,77,0.00,CLR,SKC,0.00,0.0,WeatherDisplay:10.37,2013-01-16 07:49:00,
2013-01-16 01:54:00,43.1,36.4,30.22,WNW,300,23.0,23.0,77,0.00,CLR,SKC,0.00,0.0,WeatherDisplay:10.37,2013-01-16 07:54:00,
2013-01-16 01:59:00,43.0,36.0,30.22,NNW,327,18.4,18.4,76,0.00,CLR,SKC,0.00,0.0,WeatherDisplay:10.37,2013-01-16 07:59:00,
2013-01-16 02:04:00,43.0,36.0,30.22,NNW,331,13.8,13.8,76,0.00,CLR,SKC,0.00,0.0,WeatherDisplay:10.37,2013-01-16 08:04:00,
2013-01-16 02:09:00,42.9,34.5,30.22,WNW,299,19.6,19.6,72,0.00,CLR,SKC,0.00,0.0,WeatherDisplay:10.37,2013-01-16 08:09:00,
2013-01-16 02:14:00,42.9,34.5,30.22,NNW,336,19.6,19.6,72,0.00,CLR,SKC,0.00,0.0,WeatherDisplay:10.37,2013-01-16 08:14:00,
2013-01-16 02:19:00,43.0,34.6,30.22,NW,321,11.5,11.5,72,0.00,CLR,SKC,0.00,0.0,WeatherDisplay:10.37,2013-01-16 08:19:00,
2013-01-16 02:24:00,43.0,34.2,30.22,WNW,289,20.7,20.7,71,0.00,CLR,SKC,0.00,0.0,WeatherDisplay:10.37,2013-01-16 08:24:00,
2013-01-16 02:29:00,43.0,34.6,30.22,NW,321,17.3,17.3,72,0.00,CLR,SKC,0.00,0.0,WeatherDisplay:10.37,2013-01-16 08:29:00,
2013-01-16 02:34:00,43.0,34.2,30.22,NW,319,20.7,20.7,71,0.00,CLR,SKC,0.00,0.0,WeatherDisplay:10.37,2013-01-16 08:34:00,
2013-01-16 02:39:00,43.0,34.2,30.22,NW,316,16.1,16.1,71,0.00,CLR,SKC,0.00,0.0,WeatherDisplay:10.37,2013-01-16 08:39:00,
2013-01-16 02:44:00,43.1,34.3,30.22,NNW,337,13.8,13.8,71,0.00,CLR,SKC,0.00,0.0,WeatherDisplay:10.37,2013-01-16 08:44:00,
2013-01-16 02:49:00,43.0,33.9,30.22,WNW,294,19.6,19.6,70,0.00,CLR,SKC,0.00,0.0,WeatherDisplay:10.37,2013-01-16 08:49:00,
2013-01-16 02:54:00,42.9,33.4,30.22,NW,318,19.6,19.6,69,0.00,CLR,SKC,0.00,0.0,WeatherDisplay:10.37,2013-01-16 08:54:00,
2013-01-16 02:59:00,42.9,33.8,30.22,NNW,328,15.0,15.0,70,0.00,CLR,SKC,0.00,0.0,WeatherDisplay:10.37,2013-01-16 08:59:00,
2013-01-16 03:04:00,43.0,34.2,30.22,NNW,340,19.6,19.6,71,0.00,CLR,SKC,0.00,0.0,WeatherDisplay:10.37,2013-01-16 09:04:00,
2013-01-16 03:09:00,42.9,33.8,30.22,NW,317,19.6,19.6,70,0.00,CLR,SKC,0.00,0.0,WeatherDisplay:10.37,2013-01-16 09:09:00,
2013-01-16 03:14:00,42.8,33.3,30.23,NNW,330,17.3,17.3,69,0.00,CLR,SKC,0.00,0.0,WeatherDisplay:10.37,2013-01-16 09:14:00,
2013-01-16 03:19:00,42.9,34.1,30.23,North,360,11.5,11.5,71,0.00,CLR,SKC,0.00,0.0,WeatherDisplay:10.37,2013-01-16 09:19:00,
2013-01-16 03:24:00,42.8,33.3,30.23,WNW,300,18.4,18.4,69,0.00,CLR,SKC,0.00,0.0,WeatherDisplay:10.37,2013-01-16 09:24:00,
2013-01-16 03:29:00,42.8,33.7,30.22,WNW,300,18.0,18.0,70,0.00,CLR,SKC,0.00,0.0,WeatherDisplay:10.37,2013-01-16 09:29:00,
2013-01-16 03:34:00,42.8,33.3,30.22,NW,317,19.6,19.6,69,0.00,CLR,SKC,0.00,0.0,WeatherDisplay:10.37,2013-01-16 09:34:00,
2013-01-16 03:39:00,42.9,33.8,30.22,WNW,287,15.0,15.0,70,0.00,CLR,SKC,0.00,0.0,WeatherDisplay:10.37,2013-01-16 09:39:00,
2013-01-16 03:44:00,42.8,33.7,30.23,WNW,290,17.3,17.3,70,0.00,CLR,SKC,0.00,0.0,WeatherDisplay:10.37,2013-01-16 09:44:00,
2013-01-16 03:49:00,42.7,33.6,30.23,NW,320,17.3,17.3,70,0.00,CLR,SKC,0.00,0.0,WeatherDisplay:10.37,2013-01-16 09:49:00,
2013-01-16 03:54:00,42.7,33.6,30.23,NW,311,16.1,16.1,70,0.00,CLR,SKC,0.00,0.0,WeatherDisplay:10.37,2013-01-16 09:54:00,
2013-01-16 03:59:00,42.5,33.4,30.23,NNW,343,15.0,15.0,70,0.00,CLR,SKC,0.00,0.0,WeatherDisplay:10.37,2013-01-16 09:59:00,
2013-01-16 04:04:00,42.6,33.5,30.23,NNW,344,19.6,19.6,70,0.00,CLR,SKC,0.00,0.0,WeatherDisplay:10.37,2013-01-16 10:04:00,
2013-01-16 04:09:00,42.5,33.4,30.23,NNW,336,12.7,12.7,70,0.00,CLR,SKC,0.00,0.0,WeatherDisplay:10.37,2013-01-16 10:09:00,
2013-01-16 04:14:00,42.6,33.5,30.23,WNW,300,16.1,16.1,70,0.00,CLR,SKC,0.00,0.0,WeatherDisplay:10.37,2013-01-16 10:14:00,
2013-01-16 04:19:00,42.5,32.7,30.23,WNW,297,19.6,19.6,68,0.00,CLR,SKC,0.00,0.0,WeatherDisplay:10.37,2013-01-16 10:19:00,
2013-01-16 04:24:00,42.6,33.1,30.23,West,276,17.3,17.3,69,0.00,CLR,SKC,0.00,0.0,WeatherDisplay:10.37,2013-01-16 10:24:00,
2013-01-16 04:29:00,42.6,33.5,30.23,NNW,331,12.7,12.7,70,0.00,CLR,SKC,0.00,0.0,WeatherDisplay:10.37,2013-01-16 10:29:00,
2013-01-16 04:34:00,42.5,33.0,30.23,WNW,298,12.7,12.7,69,0.00,CLR,SKC,0.00,0.0,WeatherDisplay:10.37,2013-01-16 10:34:00,
2013-01-16 04:39:00,42.4,32.6,30.23,WNW,289,15.0,15.0,68,0.00,CLR,SKC,0.00,0.0,WeatherDisplay:10.37,2013-01-16 10:39:00,
2013-01-16 04:44:00,42.5,33.0,30.24,WNW,300,15.0,15.0,69,0.00,CLR,SKC,0.00,0.0,WeatherDisplay:10.37,2013-01-16 10:44:00,
2013-01-16 04:49:00,42.4,32.6,30.24,NW,308,19.6,19.6,68,0.00,CLR,SKC,0.00,0.0,WeatherDisplay:10.37,2013-01-16 10:49:00,
2013-01-16 04:54:00,42.5,33.4,30.24,WNW,296,15.0,15.0,70,0.00,CLR,SKC,0.00,0.0,WeatherDisplay:10.37,2013-01-16 10:54:00,
2013-01-16 04:59:00,42.4,33.3,30.25,WNW,303,16.0,16.0,70,0.00,CLR,SKC,0.00,0.0,WeatherDisplay:10.37,2013-01-16 10:59:00,
2013-01-16 05:04:00,42.2,32.4,30.25,NW,324,13.8,13.8,68,0.00,CLR,SKC,0.00,0.0,WeatherDisplay:10.37,2013-01-16 11:04:00,
2013-01-16 05:09:00,42.3,32.5,30.25,West,273,13.8,13.8,68,0.00,CLR,SKC,0.00,0.0,WeatherDisplay:10.37,2013-01-16 11:09:00,
2013-01-16 05:14:00,42.3,32.5,30.25,NW,322,16.1,16.1,68,0.00,CLR,SKC,0.00,0.0,WeatherDisplay:10.37,2013-01-16 11:14:00,
2013-01-16 05:19:00,42.3,32.8,30.25,WNW,288,15.0,15.0,69,0.00,CLR,SKC,0.00,0.0,WeatherDisplay:10.37,2013-01-16 11:19:00,
2013-01-16 05:24:00,42.2,32.4,30.25,WNW,298,15.0,15.0,68,0.00,CLR,SKC,0.00,0.0,WeatherDisplay:10.37,2013-01-16 11:24:00,
2013-01-16 05:29:00,42.2,32.4,30.26,WNW,298,13.8,13.8,68,0.00,CLR,SKC,0.00,0.0,WeatherDisplay:10.37,2013-01-16 11:29:00,
2013-01-16 05:34:00,42.1,32.3,30.26,NW,318,16.1,16.1,68,0.00,CLR,SKC,0.00,0.0,WeatherDisplay:10.37,2013-01-16 11:34:00,
2013-01-16 05:39:00,42.1,32.3,30.26,West,273,13.8,13.8,68,0.00,CLR,SKC,0.00,0.0,WeatherDisplay:10.37,2013-01-16 11:39:00,
2013-01-16 05:44:00,41.9,32.1,30.27,WNW,298,19.6,19.6,68,0.00,CLR,SKC,0.00,0.0,WeatherDisplay:10.37,2013-01-16 11:44:00,
2013-01-16 05:49:00,41.8,32.0,30.27,WNW,293,16.1,16.1,68,0.00,CLR,SKC,0.00,0.0,WeatherDisplay:10.37,2013-01-16 11:49:00,
2013-01-16 05:54:00,41.6,31.4,30.27,WNW,285,18.0,18.0,67,0.00,CLR,SKC,0.00,0.0,WeatherDisplay:10.37,2013-01-16 11:54:00,
2013-01-16 05:59:00,41.5,31.7,30.28,WNW,295,17.3,17.3,68,0.00,CLR,SKC,0.00,0.0,WeatherDisplay:10.37,2013-01-16 11:59:00,
2013-01-16 06:04:00,41.3,31.2,30.28,WNW,287,18.4,18.4,67,0.00,CLR,SKC,0.00,0.0,WeatherDisplay:10.37,2013-01-16 12:04:00,
2013-01-16 06:09:00,41.3,31.5,30.28,West,281,14.0,14.0,68,0.00,CLR,SKC,0.00,0.0,WeatherDisplay:10.37,2013-01-16 12:09:00,
2013-01-16 06:14:00,41.1,31.7,30.28,WNW,294,14.0,14.0,69,0.00,CLR,SKC,0.00,0.0,WeatherDisplay:10.37,2013-01-16 12:14:00,
2013-01-16 06:19:00,41.0,31.2,30.28,West,273,13.0,13.0,68,0.00,CLR,SKC,0.00,0.0,WeatherDisplay:10.37,2013-01-16 12:19:00,
2013-01-16 06:24:00,40.9,31.1,30.28,West,272,13.8,13.8,68,0.00,CLR,SKC,0.00,0.0,WeatherDisplay:10.37,2013-01-16 12:24:00,
2013-01-16 06:29:00,40.5,31.1,30.28,West,281,19.6,19.6,69,0.00,CLR,SKC,0.00,0.0,WeatherDisplay:10.37,2013-01-16 12:29:00,
2013-01-16 06:34:00,40.3,31.3,30.28,West,274,18.4,18.4,70,0.00,CLR,SKC,0.00,0.0,WeatherDisplay:10.37,2013-01-16 12:34:00,
2013-01-16 06:39:00,40.1,31.4,30.28,WNW,286,21.0,21.0,71,0.00,CLR,SKC,0.00,0.0,WeatherDisplay:10.37,2013-01-16 12:39:00,
2013-01-16 06:44:00,40.1,31.8,30.29,WNW,294,15.0,15.0,72,0.00,CLR,SKC,0.00,0.0,WeatherDisplay:10.37,2013-01-16 12:44:00,
2013-01-16 06:49:00,40.0,31.7,30.29,West,271,18.4,18.4,72,0.00,CLR,SKC,0.00,0.0,WeatherDisplay:10.37,2013-01-16 12:49:00,
2013-01-16 06:54:00,40.0,31.7,30.29,NNW,327,14.0,14.0,72,0.00,CLR,SKC,0.00,0.0,WeatherDisplay:10.37,2013-01-16 12:54:00,
2013-01-16 06:59:00,40.1,31.8,30.30,WNW,296,12.7,12.7,72,0.00,CLR,SKC,0.00,0.0,WeatherDisplay:10.37,2013-01-16 12:59:00,
2013-01-16 07:04:00,40.2,31.5,30.30,West,263,13.8,13.8,71,0.00,CLR,SKC,0.00,0.0,WeatherDisplay:10.37,2013-01-16 13:04:00,
2013-01-16 07:09:00,40.3,30.9,30.30,NW,313,13.8,13.8,69,0.00,CLR,SKC,0.00,0.0,WeatherDisplay:10.37,2013-01-16 13:09:00,
2013-01-16 07:14:00,40.4,30.7,30.30,NNW,330,12.7,12.7,68,0.00,CLR,SKC,0.00,0.0,WeatherDisplay:10.37,2013-01-16 13:14:00,
2013-01-16 07:19:00,40.5,30.0,30.30,WNW,295,12.7,12.7,66,0.00,CLR,SKC,0.00,0.0,WeatherDisplay:10.37,2013-01-16 13:19:00,
2013-01-16 07:24:00,40.5,30.8,30.30,NW,316,13.8,13.8,68,0.00,CLR,SKC,0.00,9.0,WeatherDisplay:10.37,2013-01-16 13:24:00,
2013-01-16 07:29:00,40.6,30.5,30.31,WNW,294,11.5,11.5,67,0.00,CLR,SKC,0.00,12.0,WeatherDisplay:10.37,2013-01-16 13:29:00,
2013-01-16 07:34:00,40.5,30.0,30.31,NW,313,12.7,12.7,66,0.00,CLR,SKC,0.00,21.0,WeatherDisplay:10.37,2013-01-16 13:34:00,
2013-01-16 07:39:00,40.5,29.7,30.31,NW,306,16.1,16.1,65,0.00,CLR,SKC,0.00,26.0,WeatherDisplay:10.37,2013-01-16 13:39:00,
2013-01-16 07:44:00,40.5,30.0,30.31,NW,323,12.7,12.7,66,0.00,CLR,SKC,0.00,33.0,WeatherDisplay:10.37,2013-01-16 13:44:00,
2013-01-16 07:49:00,40.6,30.1,30.31,NW,304,16.1,16.1,66,0.00,CLR,SKC,0.00,83.0,WeatherDisplay:10.37,2013-01-16 13:49:00,
2013-01-16 07:54:00,40.6,29.7,30.31,WNW,302,14.0,14.0,65,0.00,CLR,SKC,0.00,105.0,WeatherDisplay:10.37,2013-01-16 13:54:00,
2013-01-16 07:59:00,40.7,29.8,30.32,NW,315,16.1,16.1,65,0.00,CLR,SKC,0.00,84.0,WeatherDisplay:10.37,2013-01-16 13:59:00,
2013-01-16 08:04:00,40.7,29.8,30.32,NNW,340,15.0,15.0,65,0.00,CLR,SKC,0.00,141.0,WeatherDisplay:10.37,2013-01-16 14:04:00,
2013-01-16 08:09:00,40.7,29.5,30.32,NW,316,12.7,12.7,64,0.00,CLR,SKC,0.00,148.0,WeatherDisplay:10.37,2013-01-16 14:09:00,
2013-01-16 08:14:00,40.7,28.7,30.33,West,277,17.3,17.3,62,0.00,CLR,SKC,0.00,193.0,WeatherDisplay:10.37,2013-01-16 14:14:00,
2013-01-16 08:19:00,40.9,28.9,30.33,NW,315,15.0,15.0,62,0.00,CLR,SKC,0.00,193.0,WeatherDisplay:10.37,2013-01-16 14:19:00,
2013-01-16 08:24:00,41.0,29.7,30.33,WNW,302,15.0,15.0,64,0.00,CLR,SKC,0.00,207.0,WeatherDisplay:10.37,2013-01-16 14:24:00,
2013-01-16 08:29:00,40.9,28.9,30.33,NW,317,16.1,16.1,62,0.00,CLR,SKC,0.00,253.0,WeatherDisplay:10.37,2013-01-16 14:29:00,
2013-01-16 08:34:00,41.0,29.0,30.33,WNW,302,15.0,15.0,62,0.00,CLR,SKC,0.00,211.0,WeatherDisplay:10.37,2013-01-16 14:34:00,
2013-01-16 08:39:00,40.9,28.1,30.33,WNW,294,17.3,17.3,60,0.00,CLR,SKC,0.00,272.0,WeatherDisplay:10.37,2013-01-16 14:39:00,
2013-01-16 08:44:00,41.0,28.6,30.34,WNW,298,11.5,11.5,61,0.00,CLR,SKC,0.00,287.0,WeatherDisplay:10.37,2013-01-16 14:44:00,
2013-01-16 08:49:00,41.1,28.3,30.34,West,268,16.1,16.1,60,0.00,CLR,SKC,0.00,294.0,WeatherDisplay:10.37,2013-01-16 14:49:00,
2013-01-16 08:54:00,41.2,27.9,30.34,WNW,294,18.4,18.4,59,0.00,CLR,SKC,0.00,316.0,WeatherDisplay:10.37,2013-01-16 14:54:00,
2013-01-16 08:59:00,41.4,27.7,30.35,WNW,292,16.1,16.1,58,0.00,CLR,SKC,0.00,267.0,WeatherDisplay:10.37,2013-01-16 14:59:00,
2013-01-16 09:04:00,41.5,27.8,30.35,WNW,291,17.3,17.3,58,0.00,CLR,SKC,0.00,323.0,WeatherDisplay:10.37,2013-01-16 15:04:00,
2013-01-16 09:09:00,41.6,27.5,30.35,NNW,327,13.8,13.8,57,0.00,CLR,SKC,0.00,359.0,WeatherDisplay:10.37,2013-01-16 15:09:00,
2013-01-16 09:14:00,41.8,27.7,30.35,WNW,297,16.1,16.1,57,0.00,CLR,SKC,0.00,355.0,WeatherDisplay:10.37,2013-01-16 15:14:00,
2013-01-16 09:19:00,41.8,28.1,30.35,NW,322,11.5,11.5,58,0.00,CLR,SKC,0.00,388.0,WeatherDisplay:10.37,2013-01-16 15:19:00,
2013-01-16 09:24:00,42.0,27.9,30.35,WNW,287,16.1,16.1,57,0.00,CLR,SKC,0.00,411.0,WeatherDisplay:10.37,2013-01-16 15:24:00,
2013-01-16 09:29:00,42.1,28.4,30.35,WNW,302,13.8,13.8,58,0.00,CLR,SKC,0.00,417.0,WeatherDisplay:10.37,2013-01-16 15:29:00,
2013-01-16 09:34:00,42.2,27.6,30.35,NW,323,16.1,16.1,56,0.00,CLR,SKC,0.00,439.0,WeatherDisplay:10.37,2013-01-16 15:34:00,
2013-01-16 09:39:00,42.5,28.3,30.35,NW,309,17.3,17.3,57,0.00,CLR,SKC,0.00,448.0,WeatherDisplay:10.37,2013-01-16 15:39:00,
2013-01-16 09:44:00,42.6,27.5,30.35,NW,324,17.3,17.3,55,0.00,CLR,SKC,0.00,466.0,WeatherDisplay:10.37,2013-01-16 15:44:00,
2013-01-16 09:49:00,42.7,27.6,30.35,NW,323,17.3,17.3,55,0.00,CLR,SKC,0.00,483.0,WeatherDisplay:10.37,2013-01-16 15:49:00,
2013-01-16 09:54:00,42.8,28.6,30.35,WNW,297,15.0,15.0,57,0.00,CLR,SKC,0.00,496.0,WeatherDisplay:10.37,2013-01-16 15:54:00,
2013-01-16 09:59:00,42.6,27.1,30.35,NW,311,13.8,13.8,54,0.00,CLR,SKC,0.00,504.0,WeatherDisplay:10.37,2013-01-16 15:59:00,
2013-01-16 10:04:00,42.8,28.2,30.35,WNW,286,11.5,11.5,56,0.00,CLR,SKC,0.00,531.0,WeatherDisplay:10.37,2013-01-16 16:04:00,
2013-01-16 10:09:00,42.7,27.2,30.35,NNW,333,12.7,12.7,54,0.00,CLR,SKC,0.00,424.0,WeatherDisplay:10.37,2013-01-16 16:09:00,
2013-01-16 10:14:00,42.7,27.2,30.35,NW,318,12.7,12.7,54,0.00,CLR,SKC,0.00,550.0,WeatherDisplay:10.37,2013-01-16 16:14:00,
2013-01-16 10:19:00,42.7,27.6,30.35,WNW,300,15.0,15.0,55,0.00,CLR,SKC,0.00,559.0,WeatherDisplay:10.37,2013-01-16 16:19:00,
2013-01-16 10:24:00,42.8,28.2,30.35,NNW,341,15.0,15.0,56,0.00,CLR,SKC,0.00,561.0,WeatherDisplay:10.37,2013-01-16 16:24:00,
2013-01-16 10:29:00,43.0,28.8,30.35,WNW,299,13.8,13.8,57,0.00,CLR,SKC,0.00,575.0,WeatherDisplay:10.37,2013-01-16 16:29:00,
2013-01-16 10:34:00,42.9,28.7,30.35,WNW,290,11.5,11.5,57,0.00,CLR,SKC,0.00,596.0,WeatherDisplay:10.37,2013-01-16 16:34:00,
2013-01-16 10:39:00,42.8,28.6,30.35,NW,325,11.5,11.5,57,0.00,CLR,SKC,0.00,601.0,WeatherDisplay:10.37,2013-01-16 16:39:00,
2013-01-16 10:44:00,43.4,29.6,30.35,WNW,295,15.0,15.0,58,0.00,CLR,SKC,0.00,606.0,WeatherDisplay:10.37,2013-01-16 16:44:00,
2013-01-16 10:49:00,43.3,29.5,30.35,NNW,338,10.4,10.4,58,0.00,CLR,SKC,0.00,615.0,WeatherDisplay:10.37,2013-01-16 16:49:00,
2013-01-16 10:54:00,43.4,29.6,30.35,WNW,294,13.8,13.8,58,0.00,CLR,SKC,0.00,624.0,WeatherDisplay:10.37,2013-01-16 16:54:00,
2013-01-16 10:59:00,43.8,29.5,30.34,NNW,327,12.7,12.7,57,0.00,CLR,SKC,0.00,631.0,WeatherDisplay:10.37,2013-01-16 16:59:00,
2013-01-16 11:04:00,43.9,30.5,30.34,NW,317,10.4,10.4,59,0.00,CLR,SKC,0.00,638.0,WeatherDisplay:10.37,2013-01-16 17:04:00,
2013-01-16 11:09:00,44.2,30.8,30.34,NW,304,12.7,12.7,59,0.00,CLR,SKC,0.00,647.0,WeatherDisplay:10.37,2013-01-16 17:09:00,
2013-01-16 11:14:00,44.2,29.9,30.33,WNW,294,11.5,11.5,57,0.00,CLR,SKC,0.00,652.0,WeatherDisplay:10.37,2013-01-16 17:14:00,
2013-01-16 11:19:00,44.5,29.8,30.33,West,269,14.0,14.0,56,0.00,CLR,SKC,0.00,659.0,WeatherDisplay:10.37,2013-01-16 17:19:00,
2013-01-16 11:24:00,44.8,29.2,30.33,NW,315,18.4,18.4,54,0.00,CLR,SKC,0.00,664.0,WeatherDisplay:10.37,2013-01-16 17:24:00,
2013-01-16 11:29:00,44.9,29.7,30.33,NW,311,16.1,16.1,55,0.00,CLR,SKC,0.00,673.0,WeatherDisplay:10.37,2013-01-16 17:29:00,
2013-01-16 11:34:00,45.4,30.2,30.33,NW,311,15.0,15.0,55,0.00,CLR,SKC,0.00,677.0,WeatherDisplay:10.37,2013-01-16 17:34:00,
2013-01-16 11:39:00,45.5,31.1,30.33,NNW,331,13.8,13.8,57,0.00,CLR,SKC,0.00,680.0,WeatherDisplay:10.37,2013-01-16 17:39:00,
2013-01-16 11:44:00,45.9,28.8,30.32,WNW,289,19.6,19.6,51,0.00,CLR,SKC,0.00,687.0,WeatherDisplay:10.37,2013-01-16 17:44:00,
2013-01-16 11:49:00,46.1,28.0,30.32,WNW,294,12.7,12.7,49,0.00,CLR,SKC,0.00,693.0,WeatherDisplay:10.37,2013-01-16 17:49:00,
2013-01-16 11:54:00,46.1,28.5,30.32,WNW,301,11.5,11.5,50,0.00,CLR,SKC,0.00,696.0,WeatherDisplay:10.37,2013-01-16 17:54:00,
2013-01-16 11:59:00,46.4,29.7,30.31,NNW,335,15.0,15.0,52,0.00,CLR,SKC,0.00,700.0,WeatherDisplay:10.37,2013-01-16 17:59:00,
2013-01-16 12:04:00,46.5,29.8,30.31,NW,325,11.5,11.5,52,0.00,CLR,SKC,0.00,701.0,WeatherDisplay:10.37,2013-01-16 18:04:00,
2013-01-16 12:09:00,46.7,30.0,30.31,NW,311,11.5,11.5,52,0.00,CLR,SKC,0.00,703.0,WeatherDisplay:10.37,2013-01-16 18:09:00,
2013-01-16 12:14:00,46.8,30.1,30.30,NW,305,15.0,15.0,52,0.00,CLR,SKC,0.00,705.0,WeatherDisplay:10.37,2013-01-16 18:14:00,
2013-01-16 12:19:00,46.9,29.7,30.30,WNW,302,11.5,11.5,51,0.00,CLR,SKC,0.00,707.0,WeatherDisplay:10.37,2013-01-16 18:19:00,
2013-01-16 12:24:00,47.1,30.4,30.30,NNW,339,13.0,13.0,52,0.00,CLR,SKC,0.00,708.0,WeatherDisplay:10.37,2013-01-16 18:24:00,
2013-01-16 12:29:00,47.6,30.8,30.29,WNW,300,13.8,13.8,52,0.00,CLR,SKC,0.00,708.0,WeatherDisplay:10.37,2013-01-16 18:29:00,
2013-01-16 12:34:00,47.9,29.1,30.29,North,350,11.5,11.5,48,0.00,CLR,SKC,0.00,707.0,WeatherDisplay:10.37,2013-01-16 18:34:00,
2013-01-16 12:39:00,48.0,29.2,30.29,NW,317,13.8,13.8,48,0.00,CLR,SKC,0.00,707.0,WeatherDisplay:10.37,2013-01-16 18:39:00,
2013-01-16 12:44:00,47.9,30.6,30.28,NW,319,11.5,11.5,51,0.00,CLR,SKC,0.00,707.0,WeatherDisplay:10.37,2013-01-16 18:44:00,
2013-01-16 12:49:00,48.0,30.2,30.28,WNW,286,13.8,13.8,50,0.00,CLR,SKC,0.00,705.0,WeatherDisplay:10.37,2013-01-16 18:49:00,
2013-01-16 12:54:00,48.3,31.0,30.28,WNW,299,11.5,11.5,51,0.00,CLR,SKC,0.00,700.0,WeatherDisplay:10.37,2013-01-16 18:54:00,
2013-01-16 12:59:00,48.7,30.9,30.27,NW,316,11.5,11.5,50,0.00,CLR,SKC,0.00,696.0,WeatherDisplay:10.37,2013-01-16 18:59:00,
2013-01-16 13:04:00,49.2,29.8,30.27,WNW,298,11.5,11.5,47,0.00,CLR,SKC,0.00,717.0,WeatherDisplay:10.37,2013-01-16 19:04:00,
2013-01-16 13:09:00,49.3,29.4,30.27,NW,315,12.7,12.7,46,0.00,CLR,SKC,0.00,693.0,WeatherDisplay:10.37,2013-01-16 19:09:00,
2013-01-16 13:14:00,49.5,29.6,30.25,NW,323,11.5,11.5,46,0.00,CLR,SKC,0.00,687.0,WeatherDisplay:10.37,2013-01-16 19:14:00,
2013-01-16 13:19:00,49.4,29.5,30.25,NW,323,12.7,12.7,46,0.00,CLR,SKC,0.00,687.0,WeatherDisplay:10.37,2013-01-16 19:19:00,
2013-01-16 13:24:00,49.9,30.5,30.25,NNW,341,11.5,11.5,47,0.00,CLR,SKC,0.00,684.0,WeatherDisplay:10.37,2013-01-16 19:24:00,
2013-01-16 13:29:00,50.4,29.8,30.24,WNW,290,13.8,13.8,45,0.00,CLR,SKC,0.00,677.0,WeatherDisplay:10.37,2013-01-16 19:29:00,
2013-01-16 13:34:00,50.8,29.6,30.24,WNW,283,14.0,14.0,44,0.00,CLR,SKC,0.00,668.0,WeatherDisplay:10.37,2013-01-16 19:34:00,
2013-01-16 13:39:00,51.1,29.9,30.24,WNW,293,12.7,12.7,44,0.00,CLR,SKC,0.00,663.0,WeatherDisplay:10.37,2013-01-16 19:39:00,
2013-01-16 13:44:00,51.3,29.5,30.24,NW,310,17.3,17.3,43,0.00,CLR,SKC,0.00,664.0,WeatherDisplay:10.37,2013-01-16 19:44:00,
2013-01-16 13:49:00,51.5,29.1,30.24,WNW,303,13.8,13.8,42,0.00,CLR,SKC,0.00,654.0,WeatherDisplay:10.37,2013-01-16 19:49:00,
2013-01-16 13:54:00,51.6,30.4,30.24,WNW,301,11.5,11.5,44,0.00,CLR,SKC,0.00,643.0,WeatherDisplay:10.37,2013-01-16 19:54:00,
2013-01-16 13:59:00,51.6,29.2,30.23,NNW,340,17.3,17.3,42,0.00,CLR,SKC,0.00,635.0,WeatherDisplay:10.37,2013-01-16 19:59:00,
2013-01-16 14:04:00,51.9,30.1,30.23,NW,321,12.0,12.0,43,0.00,CLR,SKC,0.00,629.0,WeatherDisplay:10.37,2013-01-16 20:04:00,
2013-01-16 14:09:00,52.2,31.5,30.23,WNW,284,13.8,13.8,45,0.00,CLR,SKC,0.00,622.0,WeatherDisplay:10.37,2013-01-16 20:09:00,
2013-01-16 14:14:00,52.0,29.0,30.23,NNW,336,11.5,11.5,41,0.00,CLR,SKC,0.00,612.0,WeatherDisplay:10.37,2013-01-16 20:14:00,
2013-01-16 14:19:00,52.2,29.8,30.23,NW,315,10.4,10.4,42,0.00,CLR,SKC,0.00,561.0,WeatherDisplay:10.37,2013-01-16 20:19:00,
2013-01-16 14:24:00,52.4,30.0,30.23,NW,304,15.0,15.0,42,0.00,CLR,SKC,0.00,599.0,WeatherDisplay:10.37,2013-01-16 20:24:00,
2013-01-16 14:29:00,52.6,27.7,30.22,WNW,290,16.1,16.1,38,0.00,CLR,SKC,0.00,585.0,WeatherDisplay:10.37,2013-01-16 20:29:00,
2013-01-16 14:34:00,52.7,27.8,30.22,WNW,286,16.1,16.1,38,0.00,CLR,SKC,0.00,578.0,WeatherDisplay:10.37,2013-01-16 20:34:00,
2013-01-16 14:39:00,53.2,27.6,30.22,WNW,293,15.0,15.0,37,0.00,CLR,SKC,0.00,563.0,WeatherDisplay:10.37,2013-01-16 20:39:00,
2013-01-16 14:44:00,53.3,27.0,30.21,WNW,284,15.0,15.0,36,0.00,CLR,SKC,0.00,554.0,WeatherDisplay:10.37,2013-01-16 20:44:00,
2013-01-16 14:49:00,53.6,27.9,30.21,WNW,284,21.0,21.0,37,0.00,CLR,SKC,0.00,534.0,WeatherDisplay:10.37,2013-01-16 20:49:00,
2013-01-16 14:54:00,53.6,26.6,30.21,West,279,17.3,17.3,35,0.00,CLR,SKC,0.00,534.0,WeatherDisplay:10.37,2013-01-16 20:54:00,
2013-01-16 14:59:00,53.8,26.1,30.21,WNW,293,23.0,23.0,34,0.00,CLR,SKC,0.00,524.0,WeatherDisplay:10.37,2013-01-16 20:59:00,
2013-01-16 15:04:00,53.9,23.1,30.21,West,281,21.0,21.0,30,0.00,CLR,SKC,0.00,510.0,WeatherDisplay:10.37,2013-01-16 21:04:00,
2013-01-16 15:09:00,54.0,25.5,30.21,WNW,292,20.7,20.7,33,0.00,CLR,SKC,0.00,494.0,WeatherDisplay:10.37,2013-01-16 21:09:00,
2013-01-16 15:14:00,54.0,26.2,30.21,WNW,289,19.6,19.6,34,0.00,CLR,SKC,0.00,487.0,WeatherDisplay:10.37,2013-01-16 21:14:00,
2013-01-16 15:19:00,54.0,25.5,30.21,West,277,16.1,16.1,33,0.00,CLR,SKC,0.00,471.0,WeatherDisplay:10.37,2013-01-16 21:19:00,
2013-01-16 15:24:00,54.1,23.3,30.21,WNW,290,21.9,21.9,30,0.00,CLR,SKC,0.00,457.0,WeatherDisplay:10.37,2013-01-16 21:24:00,
2013-01-16 15:29:00,54.3,25.0,30.20,WNW,302,19.6,19.6,32,0.00,CLR,SKC,0.00,439.0,WeatherDisplay:10.37,2013-01-16 21:29:00,
2013-01-16 15:34:00,54.4,26.6,30.20,WNW,282,18.4,18.4,34,0.00,CLR,SKC,0.00,425.0,WeatherDisplay:10.37,2013-01-16 21:34:00,
2013-01-16 15:39:00,54.5,25.2,30.20,West,278,19.6,19.6,32,0.00,CLR,SKC,0.00,406.0,WeatherDisplay:10.37,2013-01-16 21:39:00,
2013-01-16 15:44:00,54.6,23.7,30.20,WNW,293,16.1,16.1,30,0.00,CLR,SKC,0.00,399.0,WeatherDisplay:10.37,2013-01-16 21:44:00,
2013-01-16 15:49:00,54.6,23.7,30.20,West,273,16.1,16.1,30,0.00,CLR,SKC,0.00,311.0,WeatherDisplay:10.37,2013-01-16 21:49:00,
2013-01-16 15:54:00,54.7,24.6,30.20,West,278,24.2,24.2,31,0.00,CLR,SKC,0.00,339.0,WeatherDisplay:10.37,2013-01-16 21:54:00,
2013-01-16 15:59:00,54.7,28.2,30.19,West,277,17.3,17.3,36,0.00,CLR,SKC,0.00,197.0,WeatherDisplay:10.37,2013-01-16 21:59:00,
2013-01-16 16:04:00,54.6,22.9,30.19,WNW,290,19.6,19.6,29,0.00,CLR,SKC,0.00,343.0,WeatherDisplay:10.37,2013-01-16 22:04:00,
2013-01-16 16:09:00,54.8,23.9,30.19,West,271,18.4,18.4,30,0.00,CLR,SKC,0.00,241.0,WeatherDisplay:10.37,2013-01-16 22:09:00,
2013-01-16 16:14:00,54.7,24.6,30.19,WNW,303,12.7,12.7,31,0.00,CLR,SKC,0.00,190.0,WeatherDisplay:10.37,2013-01-16 22:14:00,
2013-01-16 16:19:00,54.8,27.6,30.19,WNW,286,17.3,17.3,35,0.00,CLR,SKC,0.00,272.0,WeatherDisplay:10.37,2013-01-16 22:19:00,
2013-01-16 16:24:00,55.1,24.2,30.19,WNW,285,19.0,19.0,30,0.00,CLR,SKC,0.00,183.0,WeatherDisplay:10.37,2013-01-16 22:24:00,
2013-01-16 16:29:00,55.5,22.0,30.19,WNW,290,23.0,23.0,27,0.00,CLR,SKC,0.00,264.0,WeatherDisplay:10.37,2013-01-16 22:29:00,
2013-01-16 16:34:00,55.6,23.8,30.19,WSW,258,16.1,16.1,29,0.00,CLR,SKC,0.00,257.0,WeatherDisplay:10.37,2013-01-16 22:34:00,
2013-01-16 16:39:00,55.6,24.6,30.19,West,280,15.0,15.0,30,0.00,CLR,SKC,0.00,244.0,WeatherDisplay:10.37,2013-01-16 22:39:00,
2013-01-16 16:44:00,55.8,24.8,30.20,West,265,19.6,19.6,30,0.00,CLR,SKC,0.00,218.0,WeatherDisplay:10.37,2013-01-16 22:44:00,
2013-01-16 16:49:00,55.9,21.5,30.20,West,265,19.6,19.6,26,0.00,CLR,SKC,0.00,202.0,WeatherDisplay:10.37,2013-01-16 22:49:00,
2013-01-16 16:54:00,55.9,23.2,30.20,West,277,24.2,24.2,28,0.00,CLR,SKC,0.00,165.0,WeatherDisplay:10.37,2013-01-16 22:54:00,
2013-01-16 16:59:00,55.7,23.1,30.20,WNW,283,20.7,20.7,28,0.00,CLR,SKC,0.00,86.0,WeatherDisplay:10.37,2013-01-16 22:59:00,
2013-01-16 17:04:00,55.7,24.7,30.20,WNW,296,19.6,19.6,30,0.00,CLR,SKC,0.00,32.0,WeatherDisplay:10.37,2013-01-16 23:04:00,
2013-01-16 17:09:00,55.5,24.5,30.20,WNW,303,19.6,19.6,30,0.00,CLR,SKC,0.00,28.0,WeatherDisplay:10.37,2013-01-16 23:09:00,
2013-01-16 17:14:00,55.5,23.7,30.21,WNW,284,16.1,16.1,29,0.00,CLR,SKC,0.00,26.0,WeatherDisplay:10.37,2013-01-16 23:14:00,
2013-01-16 17:19:00,55.5,24.5,30.21,West,274,18.4,18.4,30,0.00,CLR,SKC,0.00,25.0,WeatherDisplay:10.37,2013-01-16 23:19:00,
2013-01-16 17:24:00,55.4,26.7,30.21,WNW,286,17.3,17.3,33,0.00,CLR,SKC,0.00,21.0,WeatherDisplay:10.37,2013-01-16 23:24:00,
2013-01-16 17:29:00,55.3,25.1,30.21,West,279,17.3,17.3,31,0.00,CLR,SKC,0.00,19.0,WeatherDisplay:10.37,2013-01-16 23:29:00,
2013-01-16 17:34:00,55.1,25.0,30.21,WNW,289,16.1,16.1,31,0.00,CLR,SKC,0.00,18.0,WeatherDisplay:10.37,2013-01-16 23:34:00,
2013-01-16 17:39:00,55.1,25.7,30.21,West,273,15.0,15.0,32,0.00,CLR,SKC,0.00,16.0,WeatherDisplay:10.37,2013-01-16 23:39:00,
2013-01-16 17:44:00,55.2,25.1,30.22,West,267,13.8,13.8,31,0.00,CLR,SKC,0.00,12.0,WeatherDisplay:10.37,2013-01-16 23:44:00,
2013-01-16 17:49:00,54.8,26.9,30.22,WNW,284,12.7,12.7,34,0.00,CLR,SKC,0.00,11.0,WeatherDisplay:10.37,2013-01-16 23:49:00,
2013-01-16 17:54:00,54.6,27.5,30.22,WNW,286,13.8,13.8,35,0.00,CLR,SKC,0.00,7.0,WeatherDisplay:10.37,2013-01-16 23:54:00,
2013-01-16 17:59:00,54.7,25.4,30.22,WNW,287,12.7,12.7,32,0.00,CLR,SKC,0.00,5.0,WeatherDisplay:10.37,2013-01-16 23:59:00,
2013-01-16 18:04:00,54.6,27.5,30.22,WNW,303,11.5,11.5,35,0.00,CLR,SKC,0.00,0.0,WeatherDisplay:10.37,2013-01-17 00:04:00,
2013-01-16 18:09:00,54.7,25.4,30.22,WNW,290,11.5,11.5,32,0.00,CLR,SKC,0.00,0.0,WeatherDisplay:10.37,2013-01-17 00:09:00,
2013-01-16 18:14:00,54.5,26.7,30.23,WNW,286,11.5,11.5,34,0.00,CLR,SKC,0.00,0.0,WeatherDisplay:10.37,2013-01-17 00:14:00,
2013-01-16 18:19:00,54.2,28.5,30.23,WNW,284,10.4,10.4,37,0.00,CLR,SKC,0.00,0.0,WeatherDisplay:10.37,2013-01-17 00:19:00,
2013-01-16 18:24:00,54.0,29.6,30.23,West,274,9.2,9.2,39,0.00,CLR,SKC,0.00,0.0,WeatherDisplay:10.37,2013-01-17 00:24:00,
2013-01-16 18:29:00,53.7,29.9,30.24,WNW,296,10.4,10.4,40,0.00,CLR,SKC,0.00,0.0,WeatherDisplay:10.37,2013-01-17 00:29:00,
2013-01-16 18:34:00,53.5,29.7,30.24,WNW,288,7.0,7.0,40,0.00,CLR,SKC,0.00,0.0,WeatherDisplay:10.37,2013-01-17 00:34:00,
2013-01-16 18:39:00,53.4,29.7,30.24,WNW,284,5.8,5.8,40,0.00,CLR,SKC,0.00,0.0,WeatherDisplay:10.37,2013-01-17 00:39:00,
2013-01-16 18:44:00,53.3,30.2,30.24,WNW,291,5.8,5.8,41,0.00,CLR,SKC,0.00,0.0,WeatherDisplay:10.37,2013-01-17 00:44:00,
2013-01-16 18:49:00,53.1,30.0,30.24,WNW,284,5.8,5.8,41,0.00,CLR,SKC,0.00,0.0,WeatherDisplay:10.37,2013-01-17 00:49:00,
2013-01-16 18:54:00,53.0,29.9,30.24,West,272,5.8,5.8,41,0.00,CLR,SKC,0.00,0.0,WeatherDisplay:10.37,2013-01-17 00:54:00,
2013-01-16 18:59:00,53.0,29.9,30.25,West,281,5.8,5.8,41,0.00,CLR,SKC,0.00,0.0,WeatherDisplay:10.37,2013-01-17 00:59:00,
2013-01-16 19:04:00,52.9,29.8,30.25,WNW,290,4.6,4.6,41,0.00,CLR,SKC,0.00,0.0,WeatherDisplay:10.37,2013-01-17 01:04:00,
2013-01-16 19:09:00,52.7,29.6,30.25,WNW,288,4.6,4.6,41,0.00,CLR,SKC,0.00,0.0,WeatherDisplay:10.37,2013-01-17 01:09:00,
2013-01-16 19:14:00,52.5,30.0,30.25,West,268,4.0,4.0,42,0.00,CLR,SKC,0.00,0.0,WeatherDisplay:10.37,2013-01-17 01:14:00,
2013-01-16 19:19:00,52.4,30.5,30.25,West,264,4.6,4.6,43,0.00,CLR,SKC,0.00,0.0,WeatherDisplay:10.37,2013-01-17 01:19:00,
2013-01-16 19:24:00,52.1,30.3,30.25,West,273,3.5,3.7,43,0.00,CLR,SKC,0.00,0.0,WeatherDisplay:10.37,2013-01-17 01:24:00,
2013-01-16 19:29:00,52.0,30.2,30.26,West,271,4.6,4.6,43,0.00,CLR,SKC,0.00,0.0,WeatherDisplay:10.37,2013-01-17 01:29:00,
2013-01-16 19:34:00,51.8,30.6,30.26,West,277,4.0,4.0,44,0.00,CLR,SKC,0.00,0.0,WeatherDisplay:10.37,2013-01-17 01:34:00,
2013-01-16 19:39:00,51.5,31.4,30.26,WNW,284,5.0,5.0,46,0.00,CLR,SKC,0.00,0.0,WeatherDisplay:10.37,2013-01-17 01:39:00,
2013-01-16 19:44:00,51.3,31.7,30.26,West,265,4.6,4.6,47,0.00,CLR,SKC,0.00,0.0,WeatherDisplay:10.37,2013-01-17 01:44:00,
2013-01-16 19:49:00,51.2,32.7,30.26,West,275,4.6,4.6,49,0.00,CLR,SKC,0.00,0.0,WeatherDisplay:10.37,2013-01-17 01:49:00,
2013-01-16 19:54:00,51.2,31.6,30.26,West,274,5.0,5.0,47,0.00,CLR,SKC,0.00,0.0,WeatherDisplay:10.37,2013-01-17 01:54:00,
2013-01-16 19:59:00,51.3,30.7,30.27,West,277,6.9,6.9,45,0.00,CLR,SKC,0.00,0.0,WeatherDisplay:10.37,2013-01-17 01:59:00,
2013-01-16 20:04:00,51.6,30.4,30.27,West,266,6.9,6.9,44,0.00,CLR,SKC,0.00,0.0,WeatherDisplay:10.37,2013-01-17 02:04:00,
2013-01-16 20:09:00,51.9,27.7,30.27,West,267,6.9,6.9,39,0.00,CLR,SKC,0.00,0.0,WeatherDisplay:10.37,2013-01-17 02:09:00,
2013-01-16 20:14:00,52.1,29.1,30.27,West,274,4.6,4.6,41,0.00,CLR,SKC,0.00,0.0,WeatherDisplay:10.37,2013-01-17 02:14:00,
2013-01-16 20:19:00,51.9,28.3,30.27,West,277,5.8,5.8,40,0.00,CLR,SKC,0.00,0.0,WeatherDisplay:10.37,2013-01-17 02:19:00,
2013-01-16 20:24:00,51.7,29.3,30.27,West,272,3.5,3.5,42,0.00,CLR,SKC,0.00,0.0,WeatherDisplay:10.37,2013-01-17 02:24:00,
2013-01-16 20:29:00,51.4,30.7,30.27,West,272,2.3,2.3,45,0.00,CLR,SKC,0.00,0.0,WeatherDisplay:10.37,2013-01-17 02:29:00,
2013-01-16 20:34:00,51.1,29.9,30.27,WSW,255,3.5,3.5,44,0.00,CLR,SKC,0.00,0.0,WeatherDisplay:10.37,2013-01-17 02:34:00,
2013-01-16 20:39:00,50.7,29.6,30.27,WSW,252,3.5,3.5,44,0.00,CLR,SKC,0.00,0.0,WeatherDisplay:10.37,2013-01-17 02:39:00,
2013-01-16 20:44:00,50.3,29.7,30.28,WSW,249,3.5,3.5,45,0.00,CLR,SKC,0.00,0.0,WeatherDisplay:10.37,2013-01-17 02:44:00,
2013-01-16 20:49:00,50.0,30.5,30.28,WSW,250,3.5,3.5,47,0.00,CLR,SKC,0.00,0.0,WeatherDisplay:10.37,2013-01-17 02:49:00,
2013-01-16 20:54:00,49.8,32.4,30.28,WSW,250,3.5,3.5,51,0.00,CLR,SKC,0.00,0.0,WeatherDisplay:10.37,2013-01-17 02:54:00,
2013-01-16 20:59:00,49.4,33.9,30.28,WSW,246,2.3,2.3,55,0.00,CLR,SKC,0.00,0.0,WeatherDisplay:10.37,2013-01-17 02:59:00,
2013-01-16 21:04:00,48.9,32.5,30.28,WSW,254,4.0,4.0,53,0.00,CLR,SKC,0.00,0.0,WeatherDisplay:10.37,2013-01-17 03:04:00,
2013-01-16 21:09:00,48.7,33.7,30.28,WSW,247,2.3,2.3,56,0.00,CLR,SKC,0.00,0.0,WeatherDisplay:10.37,2013-01-17 03:09:00,
2013-01-16 21:14:00,48.5,35.2,30.28,WSW,247,1.1,1.1,60,0.00,CLR,SKC,0.00,0.0,WeatherDisplay:10.37,2013-01-17 03:14:00,
2013-01-16 21:19:00,48.2,35.4,30.28,WSW,247,3.5,3.5,61,0.00,CLR,SKC,0.00,0.0,WeatherDisplay:10.37,2013-01-17 03:19:00,
2013-01-16 21:24:00,47.9,35.5,30.28,WSW,249,3.5,3.5,62,0.00,CLR,SKC,0.00,0.0,WeatherDisplay:10.37,2013-01-17 03:24:00,
2013-01-16 21:29:00,47.6,36.4,30.28,WSW,254,3.5,3.5,65,0.00,CLR,SKC,0.00,0.0,WeatherDisplay:10.37,2013-01-17 03:29:00,
2013-01-16 21:34:00,47.6,36.0,30.28,West,270,3.5,3.5,64,0.00,CLR,SKC,0.00,0.0,WeatherDisplay:10.37,2013-01-17 03:34:00,
2013-01-16 21:39:00,47.7,35.3,30.28,West,273,3.5,3.5,62,0.00,CLR,SKC,0.00,0.0,WeatherDisplay:10.37,2013-01-17 03:39:00,
2013-01-16 21:44:00,47.8,33.7,30.28,WNW,287,4.6,4.6,58,0.00,CLR,SKC,0.00,0.0,WeatherDisplay:10.37,2013-01-17 03:44:00,
2013-01-16 21:49:00,48.1,33.1,30.28,WNW,282,3.5,3.5,56,0.00,CLR,SKC,0.00,0.0,WeatherDisplay:10.37,2013-01-17 03:49:00,
2013-01-16 21:54:00,48.3,33.3,30.28,WSW,253,3.5,3.5,56,0.00,CLR,SKC,0.00,0.0,WeatherDisplay:10.37,2013-01-17 03:54:00,
2013-01-16 21:59:00,48.1,33.6,30.28,WSW,251,3.5,3.5,57,0.00,CLR,SKC,0.00,0.0,WeatherDisplay:10.37,2013-01-17 03:59:00,
2013-01-16 22:04:00,47.7,35.3,30.28,West,261,3.5,3.5,62,0.00,CLR,SKC,0.00,0.0,WeatherDisplay:10.37,2013-01-17 04:04:00,
2013-01-16 22:09:00,47.6,35.6,30.28,West,265,3.5,3.5,63,0.00,CLR,SKC,0.00,0.0,WeatherDisplay:10.37,2013-01-17 04:09:00,
2013-01-16 22:14:00,47.5,36.3,30.28,West,271,3.5,3.5,65,0.00,CLR,SKC,0.00,0.0,WeatherDisplay:10.37,2013-01-17 04:14:00,
2013-01-16 22:19:00,47.6,34.8,30.28,West,271,3.5,3.5,61,0.00,CLR,SKC,0.00,0.0,WeatherDisplay:10.37,2013-01-17 04:19:00,
2013-01-16 22:24:00,47.8,33.3,30.28,West,273,4.0,4.0,57,0.00,CLR,SKC,0.00,0.0,WeatherDisplay:10.37,2013-01-17 04:24:00,
2013-01-16 22:29:00,48.1,34.0,30.28,West,277,3.5,3.5,58,0.00,CLR,SKC,0.00,0.0,WeatherDisplay:10.37,2013-01-17 04:29:00,
2013-01-16 22:34:00,48.1,33.1,30.28,West,277,3.5,3.5,56,0.00,CLR,SKC,0.00,0.0,WeatherDisplay:10.37,2013-01-17 04:34:00,
2013-01-16 22:39:00,48.2,34.1,30.28,West,277,3.5,3.5,58,0.00,CLR,SKC,0.00,0.0,WeatherDisplay:10.37,2013-01-17 04:39:00,
2013-01-16 22:44:00,47.9,32.9,30.28,West,275,3.5,3.5,56,0.00,CLR,SKC,0.00,0.0,WeatherDisplay:10.37,2013-01-17 04:44:00,
2013-01-16 22:49:00,47.7,34.5,30.28,West,275,2.3,2.3,60,0.00,CLR,SKC,0.00,0.0,WeatherDisplay:10.37,2013-01-17 04:49:00,
2013-01-16 22:54:00,47.3,35.7,30.28,WSW,244,3.5,3.5,64,0.00,CLR,SKC,0.00,0.0,WeatherDisplay:10.37,2013-01-17 04:54:00,
2013-01-16 22:59:00,47.0,35.0,30.28,WSW,241,3.5,3.5,63,0.00,CLR,SKC,0.00,0.0,WeatherDisplay:10.37,2013-01-17 04:59:00,
2013-01-16 23:01:00,47.0,35.0,30.28,WSW,244,2.0,3.0,63,0.00,CLR,SKC,0.00,0.0,WeatherDisplay:10.37,2013-01-17 05:01:00,
2013-01-16 23:02:00,47.0,35.0,30.28,WSW,242,3.5,3.5,63,0.00,CLR,SKC,0.00,0.0,WeatherDisplay:10.37,2013-01-17 05:02:00,
2013-01-16 23:07:00,46.9,35.4,30.28,WSW,241,2.3,2.3,64,0.00,CLR,SKC,0.00,0.0,WeatherDisplay:10.37,2013-01-17 05:07:00,
2013-01-16 23:12:00,46.8,36.4,30.28,WSW,242,3.0,3.0,67,0.00,CLR,SKC,0.00,0.0,WeatherDisplay:10.37,2013-01-17 05:12:00,
2013-01-16 23:17:00,46.5,36.5,30.28,WSW,243,2.3,2.3,68,0.00,CLR,SKC,0.00,0.0,WeatherDisplay:10.37,2013-01-17 05:17:00,
2013-01-16 23:22:00,46.4,36.8,30.28,WSW,240,3.5,3.5,69,0.00,CLR,SKC,0.00,0.0,WeatherDisplay:10.37,2013-01-17 05:22:00,
2013-01-16 23:27:00,46.1,36.5,30.28,WSW,242,3.5,3.5,69,0.00,CLR,SKC,0.00,0.0,WeatherDisplay:10.37,2013-01-17 05:27:00,
2013-01-16 23:32:00,45.8,35.1,30.28,WSW,240,2.3,2.3,66,0.00,CLR,SKC,0.00,0.0,WeatherDisplay:10.37,2013-01-17 05:32:00,
2013-01-16 23:37:00,45.5,35.2,30.28,WSW,241,3.5,3.5,67,0.00,CLR,SKC,0.00,0.0,WeatherDisplay:10.37,2013-01-17 05:37:00,
2013-01-16 23:42:00,45.2,34.5,30.29,WSW,248,3.5,3.5,66,0.00,CLR,SKC,0.00,0.0,WeatherDisplay:10.37,2013-01-17 05:42:00,
2013-01-16 23:47:00,44.9,34.2,30.29,WSW,247,2.0,2.0,66,0.00,CLR,SKC,0.00,0.0,WeatherDisplay:10.37,2013-01-17 05:47:00,
2013-01-16 23:52:00,44.6,34.3,30.29,WSW,247,3.0,3.0,67,0.00,CLR,SKC,0.00,0.0,WeatherDisplay:10.37,2013-01-17 05:52:00,
2013-01-16 23:57:00,44.5,34.2,30.29,WSW,248,2.3,2.3,67,0.00,CLR,SKC,0.00,0.0,WeatherDisplay:10.37,2013-01-17 05:57:00,